sensor_id;sensor_type;location;lat;lon;timestamp;P1;durP1;ratioP1;P2;durP2;ratioP2
72573;SDS011;60603;52.548;13.420;2022-10-16T00:02:21;4.00;;;2.33;;
72573;SDS011;60603;52.548;13.420;2022-10-16T00:04:46;9.90;;;4.82;;
72573;SDS011;60603;52.548;13.420;2022-10-16T00:07:12;7.53;;;3.00;;
72573;SDS011;60603;52.548;13.420;2022-10-16T00:09:37;10.07;;;4.72;;
72573;SDS011;60603;52.548;13.420;2022-10-16T00:12:03;6.30;;;3.00;;
72573;SDS011;60603;52.548;13.420;2022-10-16T00:14:31;10.20;;;5.45;;
72573;SDS011;60603;52.548;13.420;2022-10-16T00:16:57;7.03;;;3.28;;
72573;SDS011;60603;52.548;13.420;2022-10-16T00:19:23;5.82;;;2.83;;
72573;SDS011;60603;52.548;13.420;2022-10-16T00:21:48;5.55;;;2.53;;
72573;SDS011;60603;52.548;13.420;2022-10-16T00:24:14;3.90;;;2.00;;
72573;SDS011;60603;52.548;13.420;2022-10-16T00:26:40;4.20;;;2.45;;
72573;SDS011;60603;52.548;13.420;2022-10-16T00:29:05;3.47;;;1.80;;
72573;SDS011;60603;52.548;13.420;2022-10-16T00:31:31;5.22;;;2.40;;
72573;SDS011;60603;52.548;13.420;2022-10-16T00:33:57;3.63;;;2.00;;
72573;SDS011;60603;52.548;13.420;2022-10-16T00:36:23;4.78;;;2.13;;
72573;SDS011;60603;52.548;13.420;2022-10-16T00:38:53;4.30;;;2.28;;
72573;SDS011;60603;52.548;13.420;2022-10-16T00:41:20;4.28;;;2.10;;
72573;SDS011;60603;52.548;13.420;2022-10-16T00:43:49;3.67;;;2.00;;
72573;SDS011;60603;52.548;13.420;2022-10-16T00:49:00;6.43;;;2.28;;
72573;SDS011;60603;52.548;13.420;2022-10-16T00:51:42;3.60;;;2.10;;
72573;SDS011;60603;52.548;13.420;2022-10-16T00:54:12;3.63;;;1.83;;
72573;SDS011;60603;52.548;13.420;2022-10-16T00:56:40;5.38;;;2.20;;
72573;SDS011;60603;52.548;13.420;2022-10-16T00:59:07;3.63;;;1.67;;
72573;SDS011;60603;52.548;13.420;2022-10-16T01:01:37;3.83;;;1.92;;
72573;SDS011;60603;52.548;13.420;2022-10-16T01:04:02;3.67;;;1.67;;
72573;SDS011;60603;52.548;13.420;2022-10-16T01:06:32;5.05;;;1.95;;
72573;SDS011;60603;52.548;13.420;2022-10-16T01:09:17;4.40;;;2.13;;
72573;SDS011;60603;52.548;13.420;2022-10-16T01:18:14;3.50;;;1.75;;
72573;SDS011;60603;52.548;13.420;2022-10-16T01:21:04;4.35;;;2.25;;
72573;SDS011;60603;52.548;13.420;2022-10-16T01:29:05;3.33;;;1.73;;
72573;SDS011;60603;52.548;13.420;2022-10-16T01:31:35;4.15;;;1.80;;
72573;SDS011;60603;52.548;13.420;2022-10-16T01:34:03;5.97;;;1.73;;
72573;SDS011;60603;52.548;13.420;2022-10-16T01:36:39;3.80;;;1.88;;
72573;SDS011;60603;52.548;13.420;2022-10-16T01:39:08;3.90;;;1.90;;
72573;SDS011;60603;52.548;13.420;2022-10-16T01:41:41;3.80;;;1.50;;
72573;SDS011;60603;52.548;13.420;2022-10-16T01:46:43;3.45;;;1.63;;
72573;SDS011;60603;52.548;13.420;2022-10-16T01:49:11;3.83;;;2.00;;
72573;SDS011;60603;52.548;13.420;2022-10-16T01:51:38;2.72;;;1.45;;
72573;SDS011;60603;52.548;13.420;2022-10-16T01:54:04;2.90;;;1.50;;
72573;SDS011;60603;52.548;13.420;2022-10-16T01:56:32;3.28;;;1.83;;
72573;SDS011;60603;52.548;13.420;2022-10-16T01:59:00;3.95;;;1.83;;
72573;SDS011;60603;52.548;13.420;2022-10-16T02:01:29;3.53;;;1.65;;
72573;SDS011;60603;52.548;13.420;2022-10-16T02:03:57;4.03;;;1.88;;
72573;SDS011;60603;52.548;13.420;2022-10-16T02:06:26;4.72;;;1.90;;
72573;SDS011;60603;52.548;13.420;2022-10-16T02:08:51;3.53;;;1.60;;
72573;SDS011;60603;52.548;13.420;2022-10-16T02:11:17;3.15;;;1.73;;
72573;SDS011;60603;52.548;13.420;2022-10-16T02:13:46;5.15;;;2.00;;
72573;SDS011;60603;52.548;13.420;2022-10-16T02:16:14;4.85;;;1.90;;
72573;SDS011;60603;52.548;13.420;2022-10-16T02:18:41;4.03;;;1.70;;
72573;SDS011;60603;52.548;13.420;2022-10-16T02:26:23;3.47;;;1.70;;
72573;SDS011;60603;52.548;13.420;2022-10-16T02:28:54;3.10;;;1.60;;
72573;SDS011;60603;52.548;13.420;2022-10-16T02:31:23;3.00;;;1.50;;
72573;SDS011;60603;52.548;13.420;2022-10-16T02:36:18;3.75;;;1.70;;
72573;SDS011;60603;52.548;13.420;2022-10-16T02:38:43;5.43;;;1.70;;
72573;SDS011;60603;52.548;13.420;2022-10-16T02:41:09;3.67;;;1.75;;
72573;SDS011;60603;52.548;13.420;2022-10-16T02:43:35;3.03;;;1.35;;
72573;SDS011;60603;52.548;13.420;2022-10-16T02:46:01;4.10;;;1.80;;
72573;SDS011;60603;52.548;13.420;2022-10-16T02:48:27;3.88;;;1.75;;
72573;SDS011;60603;52.548;13.420;2022-10-16T02:50:52;3.10;;;1.45;;
72573;SDS011;60603;52.548;13.420;2022-10-16T02:53:18;3.28;;;1.45;;
72573;SDS011;60603;52.548;13.420;2022-10-16T02:55:44;3.20;;;1.50;;
72573;SDS011;60603;52.548;13.420;2022-10-16T02:58:09;2.78;;;1.38;;
72573;SDS011;60603;52.548;13.420;2022-10-16T03:00:35;3.20;;;1.83;;
72573;SDS011;60603;52.548;13.420;2022-10-16T03:03:01;4.13;;;1.52;;
72573;SDS011;60603;52.548;13.420;2022-10-16T03:05:26;4.60;;;1.45;;
72573;SDS011;60603;52.548;13.420;2022-10-16T03:07:52;4.45;;;1.73;;
72573;SDS011;60603;52.548;13.420;2022-10-16T03:10:18;3.88;;;1.75;;
72573;SDS011;60603;52.548;13.420;2022-10-16T03:12:44;4.85;;;1.70;;
72573;SDS011;60603;52.548;13.420;2022-10-16T03:15:09;4.82;;;1.80;;
72573;SDS011;60603;52.548;13.420;2022-10-16T03:17:35;4.40;;;2.20;;
72573;SDS011;60603;52.548;13.420;2022-10-16T03:20:01;3.47;;;1.75;;
72573;SDS011;60603;52.548;13.420;2022-10-16T03:22:27;4.65;;;1.80;;
72573;SDS011;60603;52.548;13.420;2022-10-16T03:24:53;5.35;;;1.70;;
72573;SDS011;60603;52.548;13.420;2022-10-16T03:27:18;3.90;;;1.85;;
72573;SDS011;60603;52.548;13.420;2022-10-16T03:29:44;5.40;;;2.08;;
72573;SDS011;60603;52.548;13.420;2022-10-16T03:32:10;6.00;;;1.98;;
72573;SDS011;60603;52.548;13.420;2022-10-16T03:34:35;3.38;;;1.70;;
72573;SDS011;60603;52.548;13.420;2022-10-16T03:37:01;3.83;;;1.77;;
72573;SDS011;60603;52.548;13.420;2022-10-16T03:39:27;4.38;;;2.22;;
72573;SDS011;60603;52.548;13.420;2022-10-16T03:41:52;3.80;;;1.98;;
72573;SDS011;60603;52.548;13.420;2022-10-16T03:44:18;3.92;;;2.20;;
72573;SDS011;60603;52.548;13.420;2022-10-16T03:46:43;4.05;;;1.98;;
72573;SDS011;60603;52.548;13.420;2022-10-16T03:49:09;3.63;;;2.05;;
72573;SDS011;60603;52.548;13.420;2022-10-16T03:51:35;3.55;;;1.80;;
72573;SDS011;60603;52.548;13.420;2022-10-16T03:54:00;4.38;;;1.92;;
72573;SDS011;60603;52.548;13.420;2022-10-16T03:56:26;3.80;;;2.10;;
72573;SDS011;60603;52.548;13.420;2022-10-16T03:58:52;3.95;;;2.17;;
72573;SDS011;60603;52.548;13.420;2022-10-16T04:01:17;5.57;;;2.10;;
72573;SDS011;60603;52.548;13.420;2022-10-16T04:03:43;4.05;;;2.08;;
72573;SDS011;60603;52.548;13.420;2022-10-16T04:06:09;4.05;;;2.22;;
72573;SDS011;60603;52.548;13.420;2022-10-16T04:08:34;4.13;;;2.10;;
72573;SDS011;60603;52.548;13.420;2022-10-16T04:11:02;5.35;;;2.15;;
72573;SDS011;60603;52.548;13.420;2022-10-16T04:13:28;6.90;;;2.03;;
72573;SDS011;60603;52.548;13.420;2022-10-16T04:15:54;4.43;;;2.15;;
72573;SDS011;60603;52.548;13.420;2022-10-16T04:18:19;4.35;;;2.10;;
72573;SDS011;60603;52.548;13.420;2022-10-16T04:20:45;4.30;;;2.10;;
72573;SDS011;60603;52.548;13.420;2022-10-16T04:23:11;5.07;;;2.10;;
72573;SDS011;60603;52.548;13.420;2022-10-16T04:25:36;3.97;;;2.30;;
72573;SDS011;60603;52.548;13.420;2022-10-16T04:28:02;4.65;;;2.30;;
72573;SDS011;60603;52.548;13.420;2022-10-16T04:30:28;3.45;;;1.98;;
72573;SDS011;60603;52.548;13.420;2022-10-16T04:32:54;4.70;;;2.80;;
72573;SDS011;60603;52.548;13.420;2022-10-16T04:35:20;4.85;;;2.00;;
72573;SDS011;60603;52.548;13.420;2022-10-16T04:37:46;5.47;;;2.78;;
72573;SDS011;60603;52.548;13.420;2022-10-16T04:40:12;7.07;;;2.20;;
72573;SDS011;60603;52.548;13.420;2022-10-16T04:42:38;5.00;;;2.17;;
72573;SDS011;60603;52.548;13.420;2022-10-16T04:45:05;4.28;;;2.30;;
72573;SDS011;60603;52.548;13.420;2022-10-16T04:47:31;5.22;;;2.40;;
72573;SDS011;60603;52.548;13.420;2022-10-16T04:49:56;4.20;;;2.50;;
72573;SDS011;60603;52.548;13.420;2022-10-16T04:52:22;4.30;;;2.28;;
72573;SDS011;60603;52.548;13.420;2022-10-16T04:54:50;4.13;;;2.20;;
72573;SDS011;60603;52.548;13.420;2022-10-16T04:57:19;6.22;;;2.20;;
72573;SDS011;60603;52.548;13.420;2022-10-16T04:59:44;5.63;;;2.45;;
72573;SDS011;60603;52.548;13.420;2022-10-16T05:02:10;4.47;;;2.17;;
72573;SDS011;60603;52.548;13.420;2022-10-16T05:04:36;4.18;;;1.98;;
72573;SDS011;60603;52.548;13.420;2022-10-16T05:07:01;6.13;;;2.55;;
72573;SDS011;60603;52.548;13.420;2022-10-16T05:09:27;5.15;;;2.13;;
72573;SDS011;60603;52.548;13.420;2022-10-16T05:11:53;5.68;;;2.60;;
72573;SDS011;60603;52.548;13.420;2022-10-16T05:14:18;4.90;;;2.28;;
72573;SDS011;60603;52.548;13.420;2022-10-16T05:16:44;4.68;;;2.08;;
72573;SDS011;60603;52.548;13.420;2022-10-16T05:19:10;4.00;;;2.38;;
72573;SDS011;60603;52.548;13.420;2022-10-16T05:21:35;4.82;;;2.40;;
72573;SDS011;60603;52.548;13.420;2022-10-16T05:24:01;4.78;;;2.40;;
72573;SDS011;60603;52.548;13.420;2022-10-16T05:26:27;5.00;;;2.50;;
72573;SDS011;60603;52.548;13.420;2022-10-16T05:28:52;5.00;;;2.45;;
72573;SDS011;60603;52.548;13.420;2022-10-16T05:31:18;4.20;;;2.40;;
72573;SDS011;60603;52.548;13.420;2022-10-16T05:33:43;4.20;;;2.40;;
72573;SDS011;60603;52.548;13.420;2022-10-16T05:36:09;4.72;;;2.20;;
72573;SDS011;60603;52.548;13.420;2022-10-16T05:38:35;4.50;;;2.45;;
72573;SDS011;60603;52.548;13.420;2022-10-16T05:41:02;6.88;;;2.38;;
72573;SDS011;60603;52.548;13.420;2022-10-16T05:43:28;4.57;;;2.33;;
72573;SDS011;60603;52.548;13.420;2022-10-16T05:46:02;4.07;;;2.15;;
72573;SDS011;60603;52.548;13.420;2022-10-16T05:48:29;4.53;;;1.73;;
72573;SDS011;60603;52.548;13.420;2022-10-16T05:50:59;4.80;;;2.28;;
72573;SDS011;60603;52.548;13.420;2022-10-16T05:53:26;10.35;;;2.40;;
72573;SDS011;60603;52.548;13.420;2022-10-16T05:55:53;6.90;;;3.50;;
72573;SDS011;60603;52.548;13.420;2022-10-16T05:58:19;6.57;;;3.05;;
72573;SDS011;60603;52.548;13.420;2022-10-16T06:00:52;7.43;;;3.33;;
72573;SDS011;60603;52.548;13.420;2022-10-16T06:03:28;5.22;;;2.80;;
72573;SDS011;60603;52.548;13.420;2022-10-16T06:05:53;6.07;;;3.00;;
72573;SDS011;60603;52.548;13.420;2022-10-16T06:08:19;5.53;;;2.88;;
72573;SDS011;60603;52.548;13.420;2022-10-16T06:10:46;5.75;;;2.67;;
72573;SDS011;60603;52.548;13.420;2022-10-16T06:13:12;5.28;;;2.90;;
72573;SDS011;60603;52.548;13.420;2022-10-16T06:15:39;5.63;;;2.55;;
72573;SDS011;60603;52.548;13.420;2022-10-16T06:18:07;7.25;;;3.05;;
72573;SDS011;60603;52.548;13.420;2022-10-16T06:20:34;5.30;;;2.53;;
72573;SDS011;60603;52.548;13.420;2022-10-16T06:23:00;4.78;;;2.60;;
72573;SDS011;60603;52.548;13.420;2022-10-16T06:25:26;4.97;;;2.55;;
72573;SDS011;60603;52.548;13.420;2022-10-16T06:27:51;5.18;;;2.35;;
72573;SDS011;60603;52.548;13.420;2022-10-16T06:30:17;7.45;;;2.42;;
72573;SDS011;60603;52.548;13.420;2022-10-16T06:32:43;3.72;;;2.10;;
72573;SDS011;60603;52.548;13.420;2022-10-16T06:35:08;6.35;;;3.03;;
72573;SDS011;60603;52.548;13.420;2022-10-16T06:37:34;6.30;;;2.60;;
72573;SDS011;60603;52.548;13.420;2022-10-16T06:40:00;5.55;;;2.60;;
72573;SDS011;60603;52.548;13.420;2022-10-16T06:42:25;6.88;;;2.53;;
72573;SDS011;60603;52.548;13.420;2022-10-16T06:44:51;6.18;;;2.20;;
72573;SDS011;60603;52.548;13.420;2022-10-16T06:47:16;4.35;;;2.38;;
72573;SDS011;60603;52.548;13.420;2022-10-16T06:49:42;6.18;;;2.78;;
72573;SDS011;60603;52.548;13.420;2022-10-16T06:52:08;4.57;;;2.75;;
72573;SDS011;60603;52.548;13.420;2022-10-16T06:54:34;4.70;;;2.65;;
72573;SDS011;60603;52.548;13.420;2022-10-16T06:56:59;5.22;;;2.78;;
72573;SDS011;60603;52.548;13.420;2022-10-16T06:59:27;4.72;;;2.60;;
72573;SDS011;60603;52.548;13.420;2022-10-16T07:01:52;5.13;;;2.85;;
72573;SDS011;60603;52.548;13.420;2022-10-16T07:04:18;5.07;;;2.40;;
72573;SDS011;60603;52.548;13.420;2022-10-16T07:06:44;4.10;;;2.47;;
72573;SDS011;60603;52.548;13.420;2022-10-16T07:09:10;5.05;;;2.25;;
72573;SDS011;60603;52.548;13.420;2022-10-16T07:11:36;3.67;;;2.00;;
72573;SDS011;60603;52.548;13.420;2022-10-16T07:14:04;5.88;;;2.25;;
72573;SDS011;60603;52.548;13.420;2022-10-16T07:16:30;3.33;;;1.95;;
72573;SDS011;60603;52.548;13.420;2022-10-16T07:18:58;4.53;;;1.83;;
72573;SDS011;60603;52.548;13.420;2022-10-16T07:21:25;3.38;;;1.92;;
72573;SDS011;60603;52.548;13.420;2022-10-16T07:23:56;4.68;;;2.55;;
72573;SDS011;60603;52.548;13.420;2022-10-16T07:26:26;4.32;;;2.03;;
72573;SDS011;60603;52.548;13.420;2022-10-16T07:28:53;3.92;;;2.00;;
72573;SDS011;60603;52.548;13.420;2022-10-16T07:31:19;3.88;;;1.80;;
72573;SDS011;60603;52.548;13.420;2022-10-16T07:33:46;4.75;;;1.95;;
72573;SDS011;60603;52.548;13.420;2022-10-16T07:36:13;6.03;;;1.90;;
72573;SDS011;60603;52.548;13.420;2022-10-16T07:38:43;5.70;;;2.08;;
72573;SDS011;60603;52.548;13.420;2022-10-16T07:41:10;3.40;;;1.75;;
72573;SDS011;60603;52.548;13.420;2022-10-16T07:43:37;4.00;;;1.70;;
72573;SDS011;60603;52.548;13.420;2022-10-16T07:46:03;4.65;;;1.90;;
72573;SDS011;60603;52.548;13.420;2022-10-16T07:48:30;3.17;;;1.60;;
72573;SDS011;60603;52.548;13.420;2022-10-16T07:50:57;3.70;;;1.70;;
72573;SDS011;60603;52.548;13.420;2022-10-16T07:53:29;2.70;;;1.50;;
72573;SDS011;60603;52.548;13.420;2022-10-16T07:55:58;4.13;;;1.83;;
72573;SDS011;60603;52.548;13.420;2022-10-16T07:58:25;4.32;;;1.60;;
72573;SDS011;60603;52.548;13.420;2022-10-16T08:00:50;4.18;;;2.00;;
72573;SDS011;60603;52.548;13.420;2022-10-16T08:03:16;3.30;;;1.70;;
72573;SDS011;60603;52.548;13.420;2022-10-16T08:05:42;3.80;;;1.42;;
72573;SDS011;60603;52.548;13.420;2022-10-16T08:08:11;3.45;;;1.60;;
72573;SDS011;60603;52.548;13.420;2022-10-16T08:10:38;2.95;;;1.35;;
72573;SDS011;60603;52.548;13.420;2022-10-16T08:13:04;3.88;;;1.60;;
72573;SDS011;60603;52.548;13.420;2022-10-16T08:15:29;5.00;;;1.50;;
72573;SDS011;60603;52.548;13.420;2022-10-16T08:17:58;2.42;;;1.23;;
72573;SDS011;60603;52.548;13.420;2022-10-16T08:20:25;3.88;;;1.60;;
72573;SDS011;60603;52.548;13.420;2022-10-16T08:22:51;3.60;;;1.60;;
72573;SDS011;60603;52.548;13.420;2022-10-16T08:25:17;3.38;;;1.60;;
72573;SDS011;60603;52.548;13.420;2022-10-16T08:27:43;3.40;;;1.92;;
72573;SDS011;60603;52.548;13.420;2022-10-16T08:30:10;5.78;;;1.83;;
72573;SDS011;60603;52.548;13.420;2022-10-16T08:32:36;5.22;;;2.45;;
72573;SDS011;60603;52.548;13.420;2022-10-16T08:35:01;5.93;;;1.88;;
72573;SDS011;60603;52.548;13.420;2022-10-16T08:37:31;4.75;;;1.98;;
72573;SDS011;60603;52.548;13.420;2022-10-16T08:39:57;2.97;;;1.50;;
72573;SDS011;60603;52.548;13.420;2022-10-16T08:42:27;2.60;;;1.50;;
72573;SDS011;60603;52.548;13.420;2022-10-16T08:45:19;3.40;;;1.70;;
72573;SDS011;60603;52.548;13.420;2022-10-16T08:48:00;4.43;;;2.05;;
72573;SDS011;60603;52.548;13.420;2022-10-16T08:50:48;3.70;;;2.05;;
72573;SDS011;60603;52.548;13.420;2022-10-16T08:53:17;4.75;;;2.17;;
72573;SDS011;60603;52.548;13.420;2022-10-16T08:55:52;4.25;;;1.83;;
72573;SDS011;60603;52.548;13.420;2022-10-16T08:58:22;4.00;;;1.80;;
72573;SDS011;60603;52.548;13.420;2022-10-16T09:01:11;5.25;;;1.92;;
72573;SDS011;60603;52.548;13.420;2022-10-16T09:06:25;3.83;;;1.70;;
72573;SDS011;60603;52.548;13.420;2022-10-16T09:09:13;3.83;;;1.88;;
72573;SDS011;60603;52.548;13.420;2022-10-16T09:17:48;3.90;;;1.33;;
72573;SDS011;60603;52.548;13.420;2022-10-16T09:23:14;4.03;;;1.60;;
72573;SDS011;60603;52.548;13.420;2022-10-16T09:25:45;3.15;;;1.40;;
72573;SDS011;60603;52.548;13.420;2022-10-16T09:28:13;3.53;;;1.30;;
72573;SDS011;60603;52.548;13.420;2022-10-16T09:30:40;3.35;;;1.45;;
72573;SDS011;60603;52.548;13.420;2022-10-16T09:33:06;3.92;;;1.48;;
72573;SDS011;60603;52.548;13.420;2022-10-16T09:35:37;3.72;;;1.40;;
72573;SDS011;60603;52.548;13.420;2022-10-16T09:38:04;3.15;;;1.40;;
72573;SDS011;60603;52.548;13.420;2022-10-16T09:40:35;6.63;;;1.75;;
72573;SDS011;60603;52.548;13.420;2022-10-16T09:45:31;5.45;;;2.45;;
72573;SDS011;60603;52.548;13.420;2022-10-16T09:47:57;3.53;;;1.52;;
72573;SDS011;60603;52.548;13.420;2022-10-16T09:50:24;3.30;;;1.35;;
72573;SDS011;60603;52.548;13.420;2022-10-16T09:53:05;4.43;;;1.88;;
72573;SDS011;60603;52.548;13.420;2022-10-16T09:55:33;6.95;;;2.83;;
72573;SDS011;60603;52.548;13.420;2022-10-16T09:57:59;3.45;;;1.60;;
72573;SDS011;60603;52.548;13.420;2022-10-16T10:00:25;3.83;;;1.48;;
72573;SDS011;60603;52.548;13.420;2022-10-16T10:02:51;14.07;;;1.98;;
72573;SDS011;60603;52.548;13.420;2022-10-16T10:05:21;4.03;;;1.60;;
72573;SDS011;60603;52.548;13.420;2022-10-16T10:07:58;3.60;;;1.23;;
72573;SDS011;60603;52.548;13.420;2022-10-16T10:10:25;3.58;;;1.40;;
72573;SDS011;60603;52.548;13.420;2022-10-16T10:12:53;2.60;;;1.20;;
72573;SDS011;60603;52.548;13.420;2022-10-16T10:15:19;4.30;;;1.40;;
72573;SDS011;60603;52.548;13.420;2022-10-16T10:17:50;4.50;;;1.60;;
72573;SDS011;60603;52.548;13.420;2022-10-16T10:22:53;3.28;;;1.20;;
72573;SDS011;60603;52.548;13.420;2022-10-16T10:31:06;2.95;;;1.55;;
72573;SDS011;60603;52.548;13.420;2022-10-16T10:36:24;2.72;;;1.00;;
72573;SDS011;60603;52.548;13.420;2022-10-16T10:42:11;3.25;;;1.33;;
72573;SDS011;60603;52.548;13.420;2022-10-16T10:50:49;3.25;;;1.08;;
72573;SDS011;60603;52.548;13.420;2022-10-16T11:01:24;3.10;;;1.15;;
72573;SDS011;60603;52.548;13.420;2022-10-16T11:06:40;2.50;;;1.05;;
72573;SDS011;60603;52.548;13.420;2022-10-16T11:09:24;5.18;;;2.22;;
72573;SDS011;60603;52.548;13.420;2022-10-16T11:16:56;2.53;;;1.15;;
72573;SDS011;60603;52.548;13.420;2022-10-16T11:24:59;6.30;;;2.38;;
72573;SDS011;60603;52.548;13.420;2022-10-16T11:30:25;2.70;;;1.20;;
72573;SDS011;60603;52.548;13.420;2022-10-16T11:38:15;2.05;;;1.00;;
72573;SDS011;60603;52.548;13.420;2022-10-16T11:43:24;5.88;;;3.13;;
72573;SDS011;60603;52.548;13.420;2022-10-16T11:45:54;3.42;;;1.13;;
72573;SDS011;60603;52.548;13.420;2022-10-16T11:48:41;3.83;;;1.20;;
72573;SDS011;60603;52.548;13.420;2022-10-16T11:51:14;4.90;;;1.55;;
72573;SDS011;60603;52.548;13.420;2022-10-16T11:56:12;4.28;;;1.30;;
72573;SDS011;60603;52.548;13.420;2022-10-16T12:01:24;4.28;;;1.30;;
72573;SDS011;60603;52.548;13.420;2022-10-16T12:04:06;4.60;;;1.50;;
72573;SDS011;60603;52.548;13.420;2022-10-16T12:07:11;3.25;;;1.05;;
72573;SDS011;60603;52.548;13.420;2022-10-16T12:09:40;2.50;;;1.13;;
72573;SDS011;60603;52.548;13.420;2022-10-16T12:12:25;3.17;;;1.10;;
72573;SDS011;60603;52.548;13.420;2022-10-16T12:15:02;2.83;;;1.02;;
72573;SDS011;60603;52.548;13.420;2022-10-16T12:17:37;2.88;;;1.13;;
72573;SDS011;60603;52.548;13.420;2022-10-16T12:25:41;3.00;;;1.05;;
72573;SDS011;60603;52.548;13.420;2022-10-16T12:30:40;3.97;;;0.90;;
72573;SDS011;60603;52.548;13.420;2022-10-16T12:33:21;3.70;;;0.90;;
72573;SDS011;60603;52.548;13.420;2022-10-16T12:35:47;2.08;;;0.95;;
72573;SDS011;60603;52.548;13.420;2022-10-16T12:40:44;3.90;;;1.15;;
72573;SDS011;60603;52.548;13.420;2022-10-16T12:48:35;3.97;;;1.20;;
72573;SDS011;60603;52.548;13.420;2022-10-16T12:54:02;5.82;;;1.02;;
72573;SDS011;60603;52.548;13.420;2022-10-16T12:56:58;2.40;;;1.15;;
72573;SDS011;60603;52.548;13.420;2022-10-16T13:05:11;2.38;;;0.98;;
72573;SDS011;60603;52.548;13.420;2022-10-16T13:07:53;3.70;;;1.20;;
72573;SDS011;60603;52.548;13.420;2022-10-16T13:10:36;2.05;;;0.80;;
72573;SDS011;60603;52.548;13.420;2022-10-16T13:13:10;1.85;;;0.90;;
72573;SDS011;60603;52.548;13.420;2022-10-16T13:15:57;2.03;;;0.90;;
72573;SDS011;60603;52.548;13.420;2022-10-16T13:21:12;2.55;;;0.93;;
72573;SDS011;60603;52.548;13.420;2022-10-16T13:26:46;1.48;;;0.68;;
72573;SDS011;60603;52.548;13.420;2022-10-16T13:29:18;3.78;;;1.00;;
72573;SDS011;60603;52.548;13.420;2022-10-16T13:31:45;3.65;;;0.90;;
72573;SDS011;60603;52.548;13.420;2022-10-16T13:34:14;1.67;;;0.90;;
72573;SDS011;60603;52.548;13.420;2022-10-16T13:36:46;4.07;;;1.60;;
72573;SDS011;60603;52.548;13.420;2022-10-16T13:44:27;2.90;;;1.10;;
72573;SDS011;60603;52.548;13.420;2022-10-16T13:47:00;3.60;;;1.00;;
72573;SDS011;60603;52.548;13.420;2022-10-16T13:49:26;1.65;;;1.02;;
72573;SDS011;60603;52.548;13.420;2022-10-16T13:51:58;2.63;;;1.00;;
72573;SDS011;60603;52.548;13.420;2022-10-16T13:54:25;2.13;;;0.82;;
72573;SDS011;60603;52.548;13.420;2022-10-16T13:56:52;2.78;;;1.00;;
72573;SDS011;60603;52.548;13.420;2022-10-16T13:59:24;3.15;;;1.10;;
72573;SDS011;60603;52.548;13.420;2022-10-16T14:02:00;1.88;;;0.77;;
72573;SDS011;60603;52.548;13.420;2022-10-16T14:04:34;3.50;;;1.00;;
72573;SDS011;60603;52.548;13.420;2022-10-16T14:07:03;1.70;;;0.77;;
72573;SDS011;60603;52.548;13.420;2022-10-16T14:09:29;1.98;;;0.90;;
72573;SDS011;60603;52.548;13.420;2022-10-16T14:12:00;3.67;;;1.20;;
72573;SDS011;60603;52.548;13.420;2022-10-16T14:14:29;2.92;;;0.90;;
72573;SDS011;60603;52.548;13.420;2022-10-16T14:17:27;1.33;;;0.80;;
72573;SDS011;60603;52.548;13.420;2022-10-16T14:19:56;2.15;;;0.90;;
72573;SDS011;60603;52.548;13.420;2022-10-16T14:24:58;4.70;;;1.00;;
72573;SDS011;60603;52.548;13.420;2022-10-16T14:27:34;2.70;;;1.00;;
72573;SDS011;60603;52.548;13.420;2022-10-16T14:30:05;3.03;;;0.90;;
72573;SDS011;60603;52.548;13.420;2022-10-16T14:32:37;3.03;;;1.02;;
72573;SDS011;60603;52.548;13.420;2022-10-16T14:35:21;3.42;;;1.13;;
72573;SDS011;60603;52.548;13.420;2022-10-16T14:37:51;2.42;;;1.05;;
72573;SDS011;60603;52.548;13.420;2022-10-16T14:40:17;2.00;;;0.98;;
72573;SDS011;60603;52.548;13.420;2022-10-16T14:42:43;7.65;;;3.78;;
72573;SDS011;60603;52.548;13.420;2022-10-16T14:45:10;2.95;;;1.23;;
72573;SDS011;60603;52.548;13.420;2022-10-16T14:47:37;1.35;;;0.80;;
72573;SDS011;60603;52.548;13.420;2022-10-16T14:50:30;2.25;;;0.70;;
72573;SDS011;60603;52.548;13.420;2022-10-16T14:52:56;3.13;;;1.20;;
72573;SDS011;60603;52.548;13.420;2022-10-16T14:55:22;3.40;;;1.75;;
72573;SDS011;60603;52.548;13.420;2022-10-16T14:57:48;2.95;;;1.33;;
72573;SDS011;60603;52.548;13.420;2022-10-16T15:00:20;1.63;;;0.90;;
72573;SDS011;60603;52.548;13.420;2022-10-16T15:02:48;2.42;;;1.13;;
72573;SDS011;60603;52.548;13.420;2022-10-16T15:05:15;3.70;;;1.00;;
72573;SDS011;60603;52.548;13.420;2022-10-16T15:07:43;3.33;;;1.30;;
72573;SDS011;60603;52.548;13.420;2022-10-16T15:10:10;2.80;;;1.20;;
72573;SDS011;60603;52.548;13.420;2022-10-16T15:12:35;4.68;;;1.13;;
72573;SDS011;60603;52.548;13.420;2022-10-16T15:15:01;2.55;;;1.23;;
72573;SDS011;60603;52.548;13.420;2022-10-16T15:17:27;2.47;;;1.00;;
72573;SDS011;60603;52.548;13.420;2022-10-16T15:19:52;5.22;;;1.35;;
72573;SDS011;60603;52.548;13.420;2022-10-16T15:22:18;2.40;;;1.10;;
72573;SDS011;60603;52.548;13.420;2022-10-16T15:24:44;2.50;;;1.10;;
72573;SDS011;60603;52.548;13.420;2022-10-16T15:27:09;3.42;;;1.08;;
72573;SDS011;60603;52.548;13.420;2022-10-16T15:29:35;4.40;;;1.20;;
72573;SDS011;60603;52.548;13.420;2022-10-16T15:32:01;2.92;;;1.33;;
72573;SDS011;60603;52.548;13.420;2022-10-16T15:34:26;3.63;;;1.20;;
72573;SDS011;60603;52.548;13.420;2022-10-16T15:36:52;3.22;;;1.10;;
72573;SDS011;60603;52.548;13.420;2022-10-16T15:39:20;2.13;;;1.20;;
72573;SDS011;60603;52.548;13.420;2022-10-16T15:41:47;3.22;;;1.35;;
72573;SDS011;60603;52.548;13.420;2022-10-16T15:44:20;3.75;;;1.65;;
72573;SDS011;60603;52.548;13.420;2022-10-16T15:46:48;4.97;;;1.60;;
72573;SDS011;60603;52.548;13.420;2022-10-16T15:49:13;3.30;;;1.25;;
72573;SDS011;60603;52.548;13.420;2022-10-16T15:51:40;2.85;;;1.27;;
72573;SDS011;60603;52.548;13.420;2022-10-16T15:54:06;3.30;;;1.20;;
72573;SDS011;60603;52.548;13.420;2022-10-16T15:56:32;4.40;;;1.50;;
72573;SDS011;60603;52.548;13.420;2022-10-16T15:58:59;4.13;;;1.80;;
72573;SDS011;60603;52.548;13.420;2022-10-16T16:01:25;3.60;;;1.50;;
72573;SDS011;60603;52.548;13.420;2022-10-16T16:03:54;3.65;;;1.90;;
72573;SDS011;60603;52.548;13.420;2022-10-16T16:06:21;4.95;;;2.40;;
72573;SDS011;60603;52.548;13.420;2022-10-16T16:08:49;4.07;;;1.90;;
72573;SDS011;60603;52.548;13.420;2022-10-16T16:11:16;5.40;;;1.80;;
72573;SDS011;60603;52.548;13.420;2022-10-16T16:13:42;7.03;;;2.85;;
72573;SDS011;60603;52.548;13.420;2022-10-16T16:16:08;6.07;;;2.58;;
72573;SDS011;60603;52.548;13.420;2022-10-16T16:18:35;5.45;;;2.40;;
72573;SDS011;60603;52.548;13.420;2022-10-16T16:21:02;7.85;;;3.60;;
72573;SDS011;60603;52.548;13.420;2022-10-16T16:23:28;7.03;;;2.60;;
72573;SDS011;60603;52.548;13.420;2022-10-16T16:26:13;5.97;;;2.58;;
72573;SDS011;60603;52.548;13.420;2022-10-16T16:28:40;8.50;;;2.90;;
72573;SDS011;60603;52.548;13.420;2022-10-16T16:31:07;7.63;;;1.85;;
72573;SDS011;60603;52.548;13.420;2022-10-16T16:33:34;3.97;;;1.70;;
72573;SDS011;60603;52.548;13.420;2022-10-16T16:36:00;7.05;;;2.70;;
72573;SDS011;60603;52.548;13.420;2022-10-16T16:38:29;9.25;;;2.53;;
72573;SDS011;60603;52.548;13.420;2022-10-16T16:40:55;3.80;;;1.65;;
72573;SDS011;60603;52.548;13.420;2022-10-16T16:43:24;6.13;;;2.15;;
72573;SDS011;60603;52.548;13.420;2022-10-16T16:45:50;4.80;;;2.25;;
72573;SDS011;60603;52.548;13.420;2022-10-16T16:48:16;6.13;;;2.00;;
72573;SDS011;60603;52.548;13.420;2022-10-16T16:50:42;6.72;;;2.67;;
72573;SDS011;60603;52.548;13.420;2022-10-16T16:53:08;5.57;;;2.42;;
72573;SDS011;60603;52.548;13.420;2022-10-16T16:55:34;5.97;;;2.17;;
72573;SDS011;60603;52.548;13.420;2022-10-16T16:57:59;5.95;;;2.20;;